sensor_id;sensor_type;location;lat;lon;timestamp;temperature;humidity
55436;DHT22;41307;53.142;6.430;2023-07-09T00:01:58;21.70;99.90
55436;DHT22;41307;53.142;6.430;2023-07-09T00:04:24;21.70;99.90
55436;DHT22;41307;53.142;6.430;2023-07-09T00:06:50;21.70;99.90
55436;DHT22;41307;53.142;6.430;2023-07-09T00:09:18;21.60;99.90
55436;DHT22;41307;53.142;6.430;2023-07-09T00:11:45;21.60;99.90
55436;DHT22;41307;53.142;6.430;2023-07-09T00:14:12;21.60;99.90
55436;DHT22;41307;53.142;6.430;2023-07-09T00:16:40;21.60;99.90
55436;DHT22;41307;53.142;6.430;2023-07-09T00:19:12;21.60;99.90
55436;DHT22;41307;53.142;6.430;2023-07-09T00:21:45;21.60;99.90
55436;DHT22;41307;53.142;6.430;2023-07-09T00:24:13;21.60;99.90
55436;DHT22;41307;53.142;6.430;2023-07-09T00:26:40;21.60;99.90
55436;DHT22;41307;53.142;6.430;2023-07-09T00:29:10;21.60;99.90
55436;DHT22;41307;53.142;6.430;2023-07-09T00:31:37;21.70;99.90
55436;DHT22;41307;53.142;6.430;2023-07-09T00:34:13;21.60;99.90
55436;DHT22;41307;53.142;6.430;2023-07-09T00:36:40;21.60;99.90
55436;DHT22;41307;53.142;6.430;2023-07-09T00:39:16;21.60;99.90
55436;DHT22;41307;53.142;6.430;2023-07-09T00:41:43;21.60;99.90
55436;DHT22;41307;53.142;6.430;2023-07-09T00:44:23;21.50;99.90
55436;DHT22;41307;53.142;6.430;2023-07-09T00:49:42;21.50;99.90
55436;DHT22;41307;53.142;6.430;2023-07-09T00:52:22;21.50;99.90
55436;DHT22;41307;53.142;6.430;2023-07-09T00:54:50;21.50;99.90
55436;DHT22;41307;53.142;6.430;2023-07-09T00:57:19;21.50;99.90
55436;DHT22;41307;53.142;6.430;2023-07-09T00:59:50;21.50;99.90
55436;DHT22;41307;53.142;6.430;2023-07-09T01:02:17;21.50;99.90
55436;DHT22;41307;53.142;6.430;2023-07-09T01:04:50;21.50;99.90
55436;DHT22;41307;53.142;6.430;2023-07-09T01:07:17;21.50;99.90
55436;DHT22;41307;53.142;6.430;2023-07-09T01:09:45;21.50;99.90
55436;DHT22;41307;53.142;6.430;2023-07-09T01:12:12;21.40;99.90
55436;DHT22;41307;53.142;6.430;2023-07-09T01:14:39;21.40;99.90
55436;DHT22;41307;53.142;6.430;2023-07-09T01:17:06;21.40;99.90
55436;DHT22;41307;53.142;6.430;2023-07-09T01:19:39;21.30;99.90
55436;DHT22;41307;53.142;6.430;2023-07-09T01:22:18;21.20;99.90
55436;DHT22;41307;53.142;6.430;2023-07-09T01:25:03;21.20;99.90
55436;DHT22;41307;53.142;6.430;2023-07-09T01:30:27;21.10;99.90
55436;DHT22;41307;53.142;6.430;2023-07-09T01:32:57;21.00;99.90
55436;DHT22;41307;53.142;6.430;2023-07-09T01:35:24;21.00;99.90
55436;DHT22;41307;53.142;6.430;2023-07-09T01:37:51;21.00;99.90
55436;DHT22;41307;53.142;6.430;2023-07-09T01:40:24;20.90;99.90
55436;DHT22;41307;53.142;6.430;2023-07-09T01:42:51;20.90;99.90
55436;DHT22;41307;53.142;6.430;2023-07-09T01:45:19;20.80;99.90
55436;DHT22;41307;53.142;6.430;2023-07-09T01:47:46;20.80;99.90
55436;DHT22;41307;53.142;6.430;2023-07-09T01:50:12;20.70;99.90
55436;DHT22;41307;53.142;6.430;2023-07-09T01:52:40;20.70;99.90
55436;DHT22;41307;53.142;6.430;2023-07-09T01:55:09;20.60;99.90
55436;DHT22;41307;53.142;6.430;2023-07-09T01:57:36;20.50;99.90
55436;DHT22;41307;53.142;6.430;2023-07-09T02:00:07;20.40;99.90
55436;DHT22;41307;53.142;6.430;2023-07-09T02:02:37;20.40;99.90
55436;DHT22;41307;53.142;6.430;2023-07-09T02:05:05;20.30;99.90
55436;DHT22;41307;53.142;6.430;2023-07-09T02:07:31;20.30;99.90
55436;DHT22;41307;53.142;6.430;2023-07-09T02:09:58;20.30;99.90
55436;DHT22;41307;53.142;6.430;2023-07-09T02:12:24;20.30;99.90
55436;DHT22;41307;53.142;6.430;2023-07-09T02:14:50;20.20;99.90
55436;DHT22;41307;53.142;6.430;2023-07-09T02:17:16;20.20;99.90
55436;DHT22;41307;53.142;6.430;2023-07-09T02:19:42;20.10;99.90
55436;DHT22;41307;53.142;6.430;2023-07-09T02:22:10;20.10;99.90
55436;DHT22;41307;53.142;6.430;2023-07-09T02:24:35;20.10;99.90
55436;DHT22;41307;53.142;6.430;2023-07-09T02:27:05;20.10;99.90
55436;DHT22;41307;53.142;6.430;2023-07-09T02:29:32;20.00;99.90
55436;DHT22;41307;53.142;6.430;2023-07-09T02:31:58;20.00;99.90
55436;DHT22;41307;53.142;6.430;2023-07-09T02:34:26;20.00;99.90
55436;DHT22;41307;53.142;6.430;2023-07-09T02:36:56;20.00;99.90
55436;DHT22;41307;53.142;6.430;2023-07-09T02:39:23;19.90;99.90
55436;DHT22;41307;53.142;6.430;2023-07-09T02:41:51;19.90;99.90
55436;DHT22;41307;53.142;6.430;2023-07-09T02:44:17;19.90;99.90
55436;DHT22;41307;53.142;6.430;2023-07-09T02:46:43;19.90;99.90
55436;DHT22;41307;53.142;6.430;2023-07-09T02:49:11;19.80;99.90
55436;DHT22;41307;53.142;6.430;2023-07-09T02:51:37;19.80;99.90
55436;DHT22;41307;53.142;6.430;2023-07-09T02:54:04;19.80;99.90
55436;DHT22;41307;53.142;6.430;2023-07-09T02:56:30;19.80;99.90
55436;DHT22;41307;53.142;6.430;2023-07-09T02:58:56;19.80;99.90
55436;DHT22;41307;53.142;6.430;2023-07-09T03:01:22;19.80;99.90
55436;DHT22;41307;53.142;6.430;2023-07-09T03:03:54;19.80;99.90
55436;DHT22;41307;53.142;6.430;2023-07-09T03:06:21;19.80;99.90
55436;DHT22;41307;53.142;6.430;2023-07-09T03:08:47;19.80;99.90
55436;DHT22;41307;53.142;6.430;2023-07-09T03:11:15;19.80;99.90
55436;DHT22;41307;53.142;6.430;2023-07-09T03:13:41;19.70;99.90
55436;DHT22;41307;53.142;6.430;2023-07-09T03:16:06;19.70;99.90
55436;DHT22;41307;53.142;6.430;2023-07-09T03:18:32;19.70;99.90
55436;DHT22;41307;53.142;6.430;2023-07-09T03:21:01;19.70;99.90
55436;DHT22;41307;53.142;6.430;2023-07-09T03:23:27;19.60;99.90
55436;DHT22;41307;53.142;6.430;2023-07-09T03:25:54;19.60;99.90
55436;DHT22;41307;53.142;6.430;2023-07-09T03:28:20;19.60;99.90
55436;DHT22;41307;53.142;6.430;2023-07-09T03:30:47;19.60;99.90
55436;DHT22;41307;53.142;6.430;2023-07-09T03:33:16;19.50;99.90
55436;DHT22;41307;53.142;6.430;2023-07-09T03:35:42;19.50;99.90
55436;DHT22;41307;53.142;6.430;2023-07-09T03:38:09;19.50;99.90
55436;DHT22;41307;53.142;6.430;2023-07-09T03:40:36;19.50;99.90
55436;DHT22;41307;53.142;6.430;2023-07-09T03:43:06;19.50;99.90
55436;DHT22;41307;53.142;6.430;2023-07-09T03:45:34;19.50;99.90
55436;DHT22;41307;53.142;6.430;2023-07-09T03:48:00;19.60;99.90
55436;DHT22;41307;53.142;6.430;2023-07-09T03:50:26;19.60;99.90
55436;DHT22;41307;53.142;6.430;2023-07-09T03:52:52;19.60;99.90
55436;DHT22;41307;53.142;6.430;2023-07-09T03:55:18;19.60;99.90
55436;DHT22;41307;53.142;6.430;2023-07-09T03:57:44;19.60;99.90
55436;DHT22;41307;53.142;6.430;2023-07-09T04:00:10;19.60;99.90
55436;DHT22;41307;53.142;6.430;2023-07-09T04:02:36;19.70;99.90
55436;DHT22;41307;53.142;6.430;2023-07-09T04:05:03;19.70;99.90
55436;DHT22;41307;53.142;6.430;2023-07-09T04:07:29;19.70;99.90
55436;DHT22;41307;53.142;6.430;2023-07-09T04:09:54;19.80;99.90
55436;DHT22;41307;53.142;6.430;2023-07-09T04:12:20;19.80;99.90
55436;DHT22;41307;53.142;6.430;2023-07-09T04:14:46;19.90;99.90
55436;DHT22;41307;53.142;6.430;2023-07-09T04:17:12;19.90;99.90
55436;DHT22;41307;53.142;6.430;2023-07-09T04:19:37;20.10;99.90
55436;DHT22;41307;53.142;6.430;2023-07-09T04:22:04;20.20;99.90
55436;DHT22;41307;53.142;6.430;2023-07-09T04:24:32;20.30;99.90
55436;DHT22;41307;53.142;6.430;2023-07-09T04:26:59;20.50;99.90
55436;DHT22;41307;53.142;6.430;2023-07-09T04:29:32;20.70;99.90
55436;DHT22;41307;53.142;6.430;2023-07-09T04:32:13;20.90;99.90
55436;DHT22;41307;53.142;6.430;2023-07-09T04:34:39;21.00;99.90
55436;DHT22;41307;53.142;6.430;2023-07-09T04:37:06;21.10;99.90
55436;DHT22;41307;53.142;6.430;2023-07-09T04:39:32;21.30;99.90
55436;DHT22;41307;53.142;6.430;2023-07-09T04:41:59;21.40;99.90
55436;DHT22;41307;53.142;6.430;2023-07-09T04:44:24;21.50;99.90
55436;DHT22;41307;53.142;6.430;2023-07-09T04:46:50;21.70;99.90
55436;DHT22;41307;53.142;6.430;2023-07-09T04:49:16;21.80;99.90
55436;DHT22;41307;53.142;6.430;2023-07-09T04:51:42;21.90;99.90
55436;DHT22;41307;53.142;6.430;2023-07-09T04:54:07;21.90;99.90
55436;DHT22;41307;53.142;6.430;2023-07-09T04:56:33;21.90;99.90
55436;DHT22;41307;53.142;6.430;2023-07-09T04:58:59;21.90;99.90
55436;DHT22;41307;53.142;6.430;2023-07-09T05:01:25;21.90;99.90
55436;DHT22;41307;53.142;6.430;2023-07-09T05:03:51;21.80;99.90
55436;DHT22;41307;53.142;6.430;2023-07-09T05:06:17;21.80;99.90
55436;DHT22;41307;53.142;6.430;2023-07-09T05:08:42;21.80;99.90
55436;DHT22;41307;53.142;6.430;2023-07-09T05:11:08;21.90;99.90
55436;DHT22;41307;53.142;6.430;2023-07-09T05:13:35;21.90;99.90
55436;DHT22;41307;53.142;6.430;2023-07-09T05:16:01;22.10;99.90
55436;DHT22;41307;53.142;6.430;2023-07-09T05:18:27;22.40;99.90
55436;DHT22;41307;53.142;6.430;2023-07-09T05:20:53;23.00;99.90
55436;DHT22;41307;53.142;6.430;2023-07-09T05:23:23;23.70;99.90
55436;DHT22;41307;53.142;6.430;2023-07-09T05:25:55;24.20;99.90
55436;DHT22;41307;53.142;6.430;2023-07-09T05:28:21;24.50;99.90
55436;DHT22;41307;53.142;6.430;2023-07-09T05:30:46;24.60;99.90
55436;DHT22;41307;53.142;6.430;2023-07-09T05:33:12;24.60;99.90
55436;DHT22;41307;53.142;6.430;2023-07-09T05:35:38;24.70;99.90
55436;DHT22;41307;53.142;6.430;2023-07-09T05:38:04;24.90;99.90
55436;DHT22;41307;53.142;6.430;2023-07-09T05:40:30;25.30;99.90
55436;DHT22;41307;53.142;6.430;2023-07-09T05:42:55;25.60;99.90
55436;DHT22;41307;53.142;6.430;2023-07-09T05:45:21;25.90;99.90
55436;DHT22;41307;53.142;6.430;2023-07-09T05:47:47;26.30;99.90
55436;DHT22;41307;53.142;6.430;2023-07-09T05:50:12;26.70;99.90
55436;DHT22;41307;53.142;6.430;2023-07-09T05:52:38;26.90;99.90
55436;DHT22;41307;53.142;6.430;2023-07-09T05:55:05;26.80;99.90
55436;DHT22;41307;53.142;6.430;2023-07-09T05:57:31;26.40;99.90
55436;DHT22;41307;53.142;6.430;2023-07-09T05:59:57;26.20;99.90
55436;DHT22;41307;53.142;6.430;2023-07-09T06:02:22;25.80;99.90
55436;DHT22;41307;53.142;6.430;2023-07-09T06:04:51;25.60;99.90
55436;DHT22;41307;53.142;6.430;2023-07-09T06:07:17;25.30;99.90
55436;DHT22;41307;53.142;6.430;2023-07-09T06:09:46;25.10;99.90
55436;DHT22;41307;53.142;6.430;2023-07-09T06:12:13;24.90;99.90
55436;DHT22;41307;53.142;6.430;2023-07-09T06:14:39;25.10;99.90
55436;DHT22;41307;53.142;6.430;2023-07-09T06:17:05;25.10;99.90
55436;DHT22;41307;53.142;6.430;2023-07-09T06:19:31;25.30;99.90
55436;DHT22;41307;53.142;6.430;2023-07-09T06:21:57;25.50;99.90
55436;DHT22;41307;53.142;6.430;2023-07-09T06:24:23;25.80;99.90
55436;DHT22;41307;53.142;6.430;2023-07-09T06:26:49;26.40;99.90
55436;DHT22;41307;53.142;6.430;2023-07-09T06:29:15;27.10;99.90
55436;DHT22;41307;53.142;6.430;2023-07-09T06:31:40;27.70;99.90
55436;DHT22;41307;53.142;6.430;2023-07-09T06:34:08;28.20;99.90
55436;DHT22;41307;53.142;6.430;2023-07-09T06:36:35;28.70;99.90
55436;DHT22;41307;53.142;6.430;2023-07-09T06:39:01;29.20;98.90
55436;DHT22;41307;53.142;6.430;2023-07-09T06:41:27;29.50;97.80
55436;DHT22;41307;53.142;6.430;2023-07-09T06:43:55;29.80;96.40
55436;DHT22;41307;53.142;6.430;2023-07-09T06:46:24;30.20;96.40
55436;DHT22;41307;53.142;6.430;2023-07-09T06:48:50;30.20;94.20
55436;DHT22;41307;53.142;6.430;2023-07-09T06:51:15;30.20;94.90
55436;DHT22;41307;53.142;6.430;2023-07-09T06:53:44;30.10;93.50
55436;DHT22;41307;53.142;6.430;2023-07-09T06:56:13;30.10;94.20
55436;DHT22;41307;53.142;6.430;2023-07-09T06:58:39;30.00;92.40
55436;DHT22;41307;53.142;6.430;2023-07-09T07:01:05;29.90;93.60
55436;DHT22;41307;53.142;6.430;2023-07-09T07:03:32;30.00;93.90
55436;DHT22;41307;53.142;6.430;2023-07-09T07:06:01;30.00;93.10
55436;DHT22;41307;53.142;6.430;2023-07-09T07:08:27;30.30;93.10
55436;DHT22;41307;53.142;6.430;2023-07-09T07:10:56;30.40;92.50
55436;DHT22;41307;53.142;6.430;2023-07-09T07:13:32;30.50;91.90
55436;DHT22;41307;53.142;6.430;2023-07-09T07:15:59;30.50;91.20
55436;DHT22;41307;53.142;6.430;2023-07-09T07:18:25;30.80;92.10
55436;DHT22;41307;53.142;6.430;2023-07-09T07:20:51;30.60;91.60
55436;DHT22;41307;53.142;6.430;2023-07-09T07:23:17;30.80;91.60
55436;DHT22;41307;53.142;6.430;2023-07-09T07:25:45;31.10;91.80
55436;DHT22;41307;53.142;6.430;2023-07-09T07:28:11;31.10;91.40
55436;DHT22;41307;53.142;6.430;2023-07-09T07:30:36;30.90;91.50
55436;DHT22;41307;53.142;6.430;2023-07-09T07:33:02;30.60;91.50
55436;DHT22;41307;53.142;6.430;2023-07-09T07:35:28;30.60;91.80
55436;DHT22;41307;53.142;6.430;2023-07-09T07:37:54;30.60;91.70
55436;DHT22;41307;53.142;6.430;2023-07-09T07:40:23;30.30;91.20
55436;DHT22;41307;53.142;6.430;2023-07-09T07:42:49;30.40;91.40
55436;DHT22;41307;53.142;6.430;2023-07-09T07:45:14;30.40;90.90
55436;DHT22;41307;53.142;6.430;2023-07-09T07:47:48;31.00;91.00
55436;DHT22;41307;53.142;6.430;2023-07-09T07:50:15;31.40;90.70
55436;DHT22;41307;53.142;6.430;2023-07-09T07:52:41;31.60;90.10
55436;DHT22;41307;53.142;6.430;2023-07-09T07:55:08;31.60;90.00
55436;DHT22;41307;53.142;6.430;2023-07-09T07:57:35;31.90;89.70
55436;DHT22;41307;53.142;6.430;2023-07-09T08:00:01;32.30;89.30
55436;DHT22;41307;53.142;6.430;2023-07-09T08:02:28;32.60;88.50
55436;DHT22;41307;53.142;6.430;2023-07-09T08:04:54;32.70;87.30
55436;DHT22;41307;53.142;6.430;2023-07-09T08:07:20;32.60;87.10
55436;DHT22;41307;53.142;6.430;2023-07-09T08:09:48;32.60;87.00
55436;DHT22;41307;53.142;6.430;2023-07-09T08:12:15;32.70;87.00
55436;DHT22;41307;53.142;6.430;2023-07-09T08:14:45;32.90;86.30
55436;DHT22;41307;53.142;6.430;2023-07-09T08:17:11;33.10;85.10
55436;DHT22;41307;53.142;6.430;2023-07-09T08:19:52;33.20;85.50
55436;DHT22;41307;53.142;6.430;2023-07-09T08:22:21;33.30;84.70
55436;DHT22;41307;53.142;6.430;2023-07-09T08:24:50;33.50;85.10
55436;DHT22;41307;53.142;6.430;2023-07-09T08:27:17;33.70;84.50
55436;DHT22;41307;53.142;6.430;2023-07-09T08:29:46;33.70;84.80
55436;DHT22;41307;53.142;6.430;2023-07-09T08:32:12;33.50;82.40
55436;DHT22;41307;53.142;6.430;2023-07-09T08:34:40;33.40;83.90
55436;DHT22;41307;53.142;6.430;2023-07-09T08:37:07;33.80;84.00
55436;DHT22;41307;53.142;6.430;2023-07-09T08:39:34;34.20;83.70
55436;DHT22;41307;53.142;6.430;2023-07-09T08:42:10;34.30;82.90
55436;DHT22;41307;53.142;6.430;2023-07-09T08:50:14;34.80;80.50
55436;DHT22;41307;53.142;6.430;2023-07-09T08:52:43;35.00;80.10
55436;DHT22;41307;53.142;6.430;2023-07-09T08:55:16;35.00;81.00
55436;DHT22;41307;53.142;6.430;2023-07-09T08:57:48;35.20;80.90
55436;DHT22;41307;53.142;6.430;2023-07-09T09:03:05;35.30;78.00
55436;DHT22;41307;53.142;6.430;2023-07-09T09:05:33;35.40;79.10
55436;DHT22;41307;53.142;6.430;2023-07-09T09:08:28;35.30;79.90
55436;DHT22;41307;53.142;6.430;2023-07-09T09:11:10;35.30;77.50
55436;DHT22;41307;53.142;6.430;2023-07-09T09:13:39;35.10;77.60
55436;DHT22;41307;53.142;6.430;2023-07-09T09:16:44;35.00;78.90
55436;DHT22;41307;53.142;6.430;2023-07-09T09:19:05;35.00;79.10
55436;DHT22;41307;53.142;6.430;2023-07-09T09:21:38;35.00;79.40
55436;DHT22;41307;53.142;6.430;2023-07-09T09:24:26;35.30;79.40
55436;DHT22;41307;53.142;6.430;2023-07-09T09:26:58;35.20;77.20
55436;DHT22;41307;53.142;6.430;2023-07-09T09:29:27;35.00;78.00
55436;DHT22;41307;53.142;6.430;2023-07-09T09:31:57;34.80;79.00
55436;DHT22;41307;53.142;6.430;2023-07-09T09:34:29;34.50;78.20
55436;DHT22;41307;53.142;6.430;2023-07-09T09:36:57;34.70;78.40
55436;DHT22;41307;53.142;6.430;2023-07-09T09:39:24;34.50;78.80
55436;DHT22;41307;53.142;6.430;2023-07-09T09:41:54;34.60;79.40
55436;DHT22;41307;53.142;6.430;2023-07-09T09:44:28;34.60;78.80
55436;DHT22;41307;53.142;6.430;2023-07-09T09:46:56;34.70;79.00
55436;DHT22;41307;53.142;6.430;2023-07-09T09:49:25;34.90;79.00
55436;DHT22;41307;53.142;6.430;2023-07-09T09:51:50;35.00;79.20
55436;DHT22;41307;53.142;6.430;2023-07-09T09:54:24;35.20;79.30
55436;DHT22;41307;53.142;6.430;2023-07-09T09:56:53;35.30;78.90
55436;DHT22;41307;53.142;6.430;2023-07-09T09:59:33;35.20;78.70
55436;DHT22;41307;53.142;6.430;2023-07-09T10:02:17;35.00;78.00
55436;DHT22;41307;53.142;6.430;2023-07-09T10:04:44;35.10;78.10
55436;DHT22;41307;53.142;6.430;2023-07-09T10:07:20;35.00;78.80
55436;DHT22;41307;53.142;6.430;2023-07-09T10:09:49;35.10;77.70
55436;DHT22;41307;53.142;6.430;2023-07-09T10:15:25;35.30;75.40
55436;DHT22;41307;53.142;6.430;2023-07-09T10:23:54;35.30;76.00
55436;DHT22;41307;53.142;6.430;2023-07-09T10:26:51;35.40;77.50
55436;DHT22;41307;53.142;6.430;2023-07-09T10:32:26;35.50;77.50
55436;DHT22;41307;53.142;6.430;2023-07-09T10:35:24;35.40;76.10
55436;DHT22;41307;53.142;6.430;2023-07-09T10:41:11;35.30;76.30
55436;DHT22;41307;53.142;6.430;2023-07-09T10:44:01;35.20;76.00
55436;DHT22;41307;53.142;6.430;2023-07-09T10:46:38;35.20;76.10
55436;DHT22;41307;53.142;6.430;2023-07-09T10:49:13;35.30;77.10
55436;DHT22;41307;53.142;6.430;2023-07-09T10:51:53;35.30;76.40
55436;DHT22;41307;53.142;6.430;2023-07-09T10:54:32;35.30;76.30
55436;DHT22;41307;53.142;6.430;2023-07-09T10:57:22;35.30;76.60
55436;DHT22;41307;53.142;6.430;2023-07-09T10:59:50;35.30;74.70
55436;DHT22;41307;53.142;6.430;2023-07-09T11:02:29;34.90;74.40
55436;DHT22;41307;53.142;6.430;2023-07-09T11:05:06;34.50;74.90
55436;DHT22;41307;53.142;6.430;2023-07-09T11:08:03;34.50;76.00
55436;DHT22;41307;53.142;6.430;2023-07-09T11:10:36;34.70;76.30
55436;DHT22;41307;53.142;6.430;2023-07-09T11:13:09;34.80;76.30
55436;DHT22;41307;53.142;6.430;2023-07-09T11:15:38;35.00;76.40
55436;DHT22;41307;53.142;6.430;2023-07-09T11:18:07;35.10;76.50
55436;DHT22;41307;53.142;6.430;2023-07-09T11:20:42;35.20;76.30
55436;DHT22;41307;53.142;6.430;2023-07-09T11:23:20;35.10;76.10
55436;DHT22;41307;53.142;6.430;2023-07-09T11:25:48;34.90;75.40
55436;DHT22;41307;53.142;6.430;2023-07-09T11:28:15;35.00;76.00
55436;DHT22;41307;53.142;6.430;2023-07-09T11:30:52;35.10;76.20
55436;DHT22;41307;53.142;6.430;2023-07-09T11:33:28;35.20;76.90
55436;DHT22;41307;53.142;6.430;2023-07-09T11:36:09;35.10;75.40
55436;DHT22;41307;53.142;6.430;2023-07-09T11:38:46;35.00;75.30
55436;DHT22;41307;53.142;6.430;2023-07-09T11:43:51;34.80;75.70
55436;DHT22;41307;53.142;6.430;2023-07-09T11:46:26;34.90;75.10
55436;DHT22;41307;53.142;6.430;2023-07-09T11:48:55;34.80;75.10
55436;DHT22;41307;53.142;6.430;2023-07-09T11:51:38;34.90;75.00
55436;DHT22;41307;53.142;6.430;2023-07-09T11:54:05;35.00;76.60
55436;DHT22;41307;53.142;6.430;2023-07-09T11:56:35;34.90;74.70
55436;DHT22;41307;53.142;6.430;2023-07-09T11:59:03;34.80;75.10
55436;DHT22;41307;53.142;6.430;2023-07-09T12:01:36;34.90;75.70
55436;DHT22;41307;53.142;6.430;2023-07-09T12:04:05;35.00;75.70
55436;DHT22;41307;53.142;6.430;2023-07-09T12:06:32;35.00;74.30
55436;DHT22;41307;53.142;6.430;2023-07-09T12:08:59;35.10;73.40
55436;DHT22;41307;53.142;6.430;2023-07-09T12:11:33;34.80;73.20
55436;DHT22;41307;53.142;6.430;2023-07-09T12:14:11;34.70;72.70
55436;DHT22;41307;53.142;6.430;2023-07-09T12:16:45;34.70;72.60
55436;DHT22;41307;53.142;6.430;2023-07-09T12:19:13;34.50;72.80
55436;DHT22;41307;53.142;6.430;2023-07-09T12:21:42;34.40;73.00
55436;DHT22;41307;53.142;6.430;2023-07-09T12:24:24;34.50;72.90
55436;DHT22;41307;53.142;6.430;2023-07-09T12:27:01;34.30;73.80
55436;DHT22;41307;53.142;6.430;2023-07-09T12:29:29;34.20;73.20
55436;DHT22;41307;53.142;6.430;2023-07-09T12:32:00;34.10;73.30
55436;DHT22;41307;53.142;6.430;2023-07-09T12:34:30;34.10;74.30
55436;DHT22;41307;53.142;6.430;2023-07-09T12:36:57;34.00;74.00
55436;DHT22;41307;53.142;6.430;2023-07-09T12:39:26;34.00;74.10
55436;DHT22;41307;53.142;6.430;2023-07-09T12:41:58;33.90;74.80
55436;DHT22;41307;53.142;6.430;2023-07-09T12:44:26;33.90;75.00
55436;DHT22;41307;53.142;6.430;2023-07-09T12:46:54;33.90;74.60
55436;DHT22;41307;53.142;6.430;2023-07-09T12:49:41;33.80;74.10
55436;DHT22;41307;53.142;6.430;2023-07-09T12:52:21;33.80;74.70
55436;DHT22;41307;53.142;6.430;2023-07-09T12:54:58;33.60;73.80
55436;DHT22;41307;53.142;6.430;2023-07-09T12:57:25;33.50;73.30
55436;DHT22;41307;53.142;6.430;2023-07-09T12:59:53;33.30;73.80
55436;DHT22;41307;53.142;6.430;2023-07-09T13:02:25;33.30;74.00
55436;DHT22;41307;53.142;6.430;2023-07-09T13:05:01;33.20;73.90
55436;DHT22;41307;53.142;6.430;2023-07-09T13:07:32;33.10;73.30
55436;DHT22;41307;53.142;6.430;2023-07-09T13:10:29;33.10;73.20
55436;DHT22;41307;53.142;6.430;2023-07-09T13:13:03;32.90;73.70
55436;DHT22;41307;53.142;6.430;2023-07-09T13:18:04;32.90;73.70
55436;DHT22;41307;53.142;6.430;2023-07-09T13:20:32;32.80;73.30
55436;DHT22;41307;53.142;6.430;2023-07-09T13:22:59;32.80;73.30
55436;DHT22;41307;53.142;6.430;2023-07-09T13:25:25;32.80;73.40
55436;DHT22;41307;53.142;6.430;2023-07-09T13:27:51;32.80;73.10
55436;DHT22;41307;53.142;6.430;2023-07-09T13:30:16;32.90;73.00
55436;DHT22;41307;53.142;6.430;2023-07-09T13:32:45;33.00;72.80
55436;DHT22;41307;53.142;6.430;2023-07-09T13:35:16;33.00;72.50
55436;DHT22;41307;53.142;6.430;2023-07-09T13:37:43;33.20;72.20
55436;DHT22;41307;53.142;6.430;2023-07-09T13:40:12;33.10;72.20
55436;DHT22;41307;53.142;6.430;2023-07-09T13:42:38;33.00;72.20
55436;DHT22;41307;53.142;6.430;2023-07-09T13:45:04;33.00;72.40
55436;DHT22;41307;53.142;6.430;2023-07-09T13:47:30;33.10;72.50
55436;DHT22;41307;53.142;6.430;2023-07-09T13:49:56;33.20;72.60
55436;DHT22;41307;53.142;6.430;2023-07-09T13:52:26;33.20;72.20
55436;DHT22;41307;53.142;6.430;2023-07-09T13:54:52;33.20;71.80
55436;DHT22;41307;53.142;6.430;2023-07-09T13:57:21;33.20;72.20
55436;DHT22;41307;53.142;6.430;2023-07-09T13:59:48;33.00;71.80
55436;DHT22;41307;53.142;6.430;2023-07-09T14:02:37;32.80;72.10
55436;DHT22;41307;53.142;6.430;2023-07-09T14:05:11;32.80;72.30
55436;DHT22;41307;53.142;6.430;2023-07-09T14:07:39;32.80;72.20
55436;DHT22;41307;53.142;6.430;2023-07-09T14:10:12;32.80;72.50
55436;DHT22;41307;53.142;6.430;2023-07-09T14:12:41;32.70;72.50
55436;DHT22;41307;53.142;6.430;2023-07-09T14:15:18;32.70;72.60
55436;DHT22;41307;53.142;6.430;2023-07-09T14:17:45;32.70;72.40
55436;DHT22;41307;53.142;6.430;2023-07-09T14:20:16;32.50;72.60
55436;DHT22;41307;53.142;6.430;2023-07-09T14:22:43;32.10;73.00
55436;DHT22;41307;53.142;6.430;2023-07-09T14:25:19;31.90;73.70
55436;DHT22;41307;53.142;6.430;2023-07-09T14:27:45;31.90;74.30
55436;DHT22;41307;53.142;6.430;2023-07-09T14:30:16;31.70;74.30
55436;DHT22;41307;53.142;6.430;2023-07-09T14:32:45;31.60;74.90
55436;DHT22;41307;53.142;6.430;2023-07-09T14:37:40;31.20;76.20
55436;DHT22;41307;53.142;6.430;2023-07-09T14:40:06;31.00;76.10
55436;DHT22;41307;53.142;6.430;2023-07-09T14:42:32;30.90;76.50
55436;DHT22;41307;53.142;6.430;2023-07-09T14:44:58;30.60;76.70
55436;DHT22;41307;53.142;6.430;2023-07-09T14:47:23;30.40;76.90
55436;DHT22;41307;53.142;6.430;2023-07-09T14:49:50;30.20;77.70
55436;DHT22;41307;53.142;6.430;2023-07-09T14:52:19;30.00;77.20
55436;DHT22;41307;53.142;6.430;2023-07-09T14:54:47;29.80;77.40
55436;DHT22;41307;53.142;6.430;2023-07-09T14:57:22;29.50;77.60
55436;DHT22;41307;53.142;6.430;2023-07-09T14:59:49;29.20;77.80
55436;DHT22;41307;53.142;6.430;2023-07-09T15:02:36;29.10;77.90
55436;DHT22;41307;53.142;6.430;2023-07-09T15:05:12;28.80;78.10
55436;DHT22;41307;53.142;6.430;2023-07-09T15:07:38;28.60;78.30
55436;DHT22;41307;53.142;6.430;2023-07-09T15:10:04;28.40;79.30
55436;DHT22;41307;53.142;6.430;2023-07-09T15:12:34;28.10;80.30
55436;DHT22;41307;53.142;6.430;2023-07-09T15:15:20;27.80;80.80
55436;DHT22;41307;53.142;6.430;2023-07-09T15:17:47;27.40;81.60
55436;DHT22;41307;53.142;6.430;2023-07-09T15:20:23;27.10;81.50
55436;DHT22;41307;53.142;6.430;2023-07-09T15:22:52;26.70;81.20
55436;DHT22;41307;53.142;6.430;2023-07-09T15:25:23;26.40;82.10
55436;DHT22;41307;53.142;6.430;2023-07-09T15:27:49;26.10;82.90
55436;DHT22;41307;53.142;6.430;2023-07-09T15:30:25;25.80;83.80
55436;DHT22;41307;53.142;6.430;2023-07-09T15:32:51;25.50;87.10
55436;DHT22;41307;53.142;6.430;2023-07-09T15:35:18;25.00;90.90
55436;DHT22;41307;53.142;6.430;2023-07-09T15:37:46;24.60;94.40
55436;DHT22;41307;53.142;6.430;2023-07-09T15:40:23;24.20;99.50
55436;DHT22;41307;53.142;6.430;2023-07-09T15:42:49;23.80;99.90
55436;DHT22;41307;53.142;6.430;2023-07-09T15:45:17;23.40;99.90
55436;DHT22;41307;53.142;6.430;2023-07-09T15:47:45;23.00;99.90
55436;DHT22;41307;53.142;6.430;2023-07-09T15:50:16;23.00;99.90
55436;DHT22;41307;53.142;6.430;2023-07-09T15:52:43;22.90;99.90
55436;DHT22;41307;53.142;6.430;2023-07-09T15:55:27;23.00;99.90
55436;DHT22;41307;53.142;6.430;2023-07-09T15:57:54;22.90;99.90
55436;DHT22;41307;53.142;6.430;2023-07-09T16:02:47;22.70;99.90
55436;DHT22;41307;53.142;6.430;2023-07-09T16:05:18;22.60;99.90
55436;DHT22;41307;53.142;6.430;2023-07-09T16:07:45;22.40;99.90
55436;DHT22;41307;53.142;6.430;2023-07-09T16:10:11;22.40;99.90
55436;DHT22;41307;53.142;6.430;2023-07-09T16:12:37;22.30;99.90
55436;DHT22;41307;53.142;6.430;2023-07-09T16:15:04;22.20;99.90
55436;DHT22;41307;53.142;6.430;2023-07-09T16:17:30;22.20;99.90
55436;DHT22;41307;53.142;6.430;2023-07-09T16:19:55;22.10;99.90
55436;DHT22;41307;53.142;6.430;2023-07-09T16:22:21;22.00;99.90
55436;DHT22;41307;53.142;6.430;2023-07-09T16:24:48;21.90;99.90